createdAt,value
2018-05-02T00:00:50.479Z,98233.42
2018-05-02T00:03:01.559Z,98234.13
2018-05-02T00:05:12.654Z,98229.46
2018-05-02T00:07:23.738Z,98228.59
2018-05-02T00:09:34.921Z,98228.59
2018-05-02T00:11:46.095Z,98225.14
2018-05-02T00:13:57.271Z,98231.58
2018-05-02T00:16:08.507Z,98228.96
2018-05-02T00:18:19.574Z,98225.59
2018-05-02T00:20:30.703Z,98226.06
2018-05-02T00:22:41.762Z,98231.54
2018-05-02T00:24:52.801Z,98226.75
2018-05-02T00:27:03.874Z,98230.36
2018-05-02T00:29:14.978Z,98229.72
2018-05-02T00:31:26.090Z,98231.94
2018-05-02T00:33:37.302Z,98224.61
2018-05-02T00:35:48.694Z,98217.23
2018-05-02T00:37:59.785Z,98215.73
2018-05-02T00:40:10.838Z,98228.05
2018-05-02T00:42:21.955Z,98224.83
2018-05-02T00:44:33.031Z,98216.20
2018-05-02T00:46:44.118Z,98217.78
2018-05-02T00:49:07.411Z,98215.27
2018-05-02T00:51:18.526Z,98213.41
2018-05-02T00:53:29.593Z,98214.06
2018-05-02T00:55:40.677Z,98215.81
2018-05-02T00:57:51.774Z,98215.57
2018-05-02T01:00:02.954Z,98214.05
2018-05-02T01:02:14.082Z,98213.95
2018-05-02T01:04:25.241Z,98215.88
2018-05-02T01:06:36.310Z,98218.05
2018-05-02T01:08:47.409Z,98218.55
2018-05-02T01:10:58.486Z,98215.13
2018-05-02T01:13:09.581Z,98220.38
2018-05-02T01:15:20.642Z,98208.14
2018-05-02T01:17:31.741Z,98212.16
2018-05-02T01:19:42.905Z,98206.23
2018-05-02T01:21:53.949Z,98200.59
2018-05-02T01:24:05.109Z,98202.20
2018-05-02T01:26:16.166Z,98205.17
2018-05-02T01:28:27.273Z,98200.80
2018-05-02T01:30:38.363Z,98191.48
2018-05-02T01:32:49.431Z,98187.83
2018-05-02T01:35:00.578Z,98182.94
2018-05-02T01:37:11.666Z,98175.29
2018-05-02T01:39:22.832Z,98177.69
2018-05-02T01:41:33.893Z,98172.16
2018-05-02T01:43:44.996Z,98171.05
2018-05-02T01:45:56.055Z,98171.52
2018-05-02T01:48:07.133Z,98171.50
2018-05-02T01:50:18.194Z,98172.00
2018-05-02T01:52:29.334Z,98174.72
2018-05-02T01:54:40.542Z,98182.01
2018-05-02T01:56:51.664Z,98185.20
2018-05-02T01:59:02.698Z,98179.89
2018-05-02T02:01:13.797Z,98175.31
2018-05-02T02:03:24.873Z,98159.61
2018-05-02T02:05:35.958Z,98156.78
2018-05-02T02:07:47.205Z,98160.88
2018-05-02T02:09:58.323Z,98164.20
2018-05-02T02:12:09.537Z,98169.59
2018-05-02T02:14:20.714Z,98173.28
2018-05-02T02:16:31.796Z,98176.97
2018-05-02T02:18:43.025Z,98176.00
2018-05-02T02:20:54.103Z,98172.33
2018-05-02T02:23:05.182Z,98171.28
2018-05-02T02:25:16.258Z,98172.95
2018-05-02T02:27:27.318Z,98168.05
2018-05-02T02:29:38.368Z,98160.09
2018-05-02T02:31:49.550Z,98163.40
2018-05-02T02:34:00.769Z,98160.41
2018-05-02T02:36:11.798Z,98162.02
2018-05-02T02:38:22.838Z,98156.84
2018-05-02T02:40:33.906Z,98157.16
2018-05-02T02:42:45.008Z,98156.69
2018-05-02T02:44:56.100Z,98162.02
2018-05-02T02:47:07.256Z,98153.42
2018-05-02T02:49:18.318Z,98158.77
2018-05-02T02:51:29.457Z,98157.17
2018-05-02T02:53:40.577Z,98154.28
2018-05-02T02:55:51.674Z,98154.48
2018-05-02T02:58:02.833Z,98153.66
2018-05-02T03:00:13.896Z,98148.73
2018-05-02T03:02:25.074Z,98148.17
2018-05-02T03:04:36.157Z,98137.77
2018-05-02T03:06:47.273Z,98134.45
2018-05-02T03:08:58.348Z,98137.61
2018-05-02T03:11:09.430Z,98135.80
2018-05-02T03:13:20.557Z,98134.87
2018-05-02T03:15:31.659Z,98128.23
2018-05-02T03:17:42.721Z,98132.08
2018-05-02T03:19:53.818Z,98131.55
2018-05-02T03:22:05.038Z,98124.38
2018-05-02T03:24:16.114Z,98132.08
2018-05-02T03:26:27.183Z,98129.44
2018-05-02T03:28:38.333Z,98127.89
2018-05-02T03:30:49.450Z,98122.50
2018-05-02T03:33:00.506Z,98131.19
2018-05-02T03:35:11.623Z,98136.69
2018-05-02T03:37:22.696Z,98128.92
2018-05-02T03:39:33.771Z,98125.30
2018-05-02T03:41:44.833Z,98124.09
2018-05-02T03:43:55.975Z,98122.50
2018-05-02T03:46:07.145Z,98118.61
2018-05-02T03:48:18.204Z,98119.02
2018-05-02T03:50:29.408Z,98121.47
2018-05-02T03:52:40.461Z,98119.90
2018-05-02T03:54:51.553Z,98122.02
2018-05-02T03:57:02.606Z,98123.31
2018-05-02T03:59:13.727Z,98123.99
2018-05-02T04:01:37.163Z,98128.96
2018-05-02T04:04:00.611Z,98132.73
2018-05-02T04:06:23.922Z,98134.34
2018-05-02T04:08:35.100Z,98135.08
2018-05-02T04:10:46.125Z,98139.94
2018-05-02T04:12:57.262Z,98137.72
2018-05-02T04:15:08.297Z,98137.39
2018-05-02T04:17:19.354Z,98132.59
2018-05-02T04:19:30.444Z,98133.00
2018-05-02T04:21:41.611Z,98129.91
2018-05-02T04:23:52.733Z,98124.61
2018-05-02T04:26:03.937Z,98127.78
2018-05-02T04:28:15.087Z,98122.14
2018-05-02T04:30:26.132Z,98121.77
2018-05-02T04:32:37.201Z,98126.58
2018-05-02T04:34:48.261Z,98124.36
2018-05-02T04:36:59.318Z,98128.61
2018-05-02T04:39:10.421Z,98131.34
2018-05-02T04:41:21.506Z,98128.45
2018-05-02T04:43:32.623Z,98125.53
2018-05-02T04:45:43.810Z,98132.78
2018-05-02T04:47:54.862Z,98141.95
2018-05-02T04:50:05.897Z,98132.70
2018-05-02T04:52:17.029Z,98131.91
2018-05-02T04:54:28.110Z,98130.59
2018-05-02T04:56:39.183Z,98136.61
2018-05-02T04:58:50.277Z,98129.83
2018-05-02T05:01:01.343Z,98132.26
2018-05-02T05:03:12.409Z,98135.69
2018-05-02T05:05:23.764Z,98132.67
2018-05-02T05:07:34.833Z,98133.92
2018-05-02T05:09:45.905Z,98136.86
2018-05-02T05:11:56.973Z,98137.18
2018-05-02T05:14:08.062Z,98135.47
2018-05-02T05:16:19.195Z,98137.11
2018-05-02T05:18:30.339Z,98141.98
2018-05-02T05:20:41.390Z,98144.62
2018-05-02T05:22:53.374Z,98146.12
2018-05-02T05:25:04.422Z,98145.03
2018-05-02T05:27:15.537Z,98144.67
2018-05-02T05:29:26.628Z,98143.79
2018-05-02T05:31:37.786Z,98144.67
2018-05-02T05:33:48.885Z,98150.69
2018-05-02T05:35:59.977Z,98153.33
2018-05-02T05:38:12.010Z,98160.05
2018-05-02T05:40:23.117Z,98162.71
2018-05-02T05:42:35.189Z,98158.52
2018-05-02T05:44:46.294Z,98165.52
2018-05-02T05:46:57.377Z,98167.79
2018-05-02T05:49:08.439Z,98157.23
2018-05-02T05:51:19.537Z,98160.63
2018-05-02T05:53:30.598Z,98158.75
2018-05-02T05:55:41.653Z,98156.37
2018-05-02T05:57:52.725Z,98158.81
2018-05-02T06:00:03.842Z,98160.97
2018-05-02T06:02:14.977Z,98161.76
2018-05-02T06:04:26.211Z,98162.11
2018-05-02T06:06:37.293Z,98155.11
2018-05-02T06:08:48.378Z,98144.52
2018-05-02T06:10:59.450Z,98149.95
2018-05-02T06:13:10.489Z,98149.06
2018-05-02T06:15:21.590Z,98150.14
2018-05-02T06:17:32.675Z,98158.39
2018-05-02T06:19:43.767Z,98158.85
2018-05-02T06:21:54.856Z,98149.48
2018-05-02T06:24:06.067Z,98146.77
2018-05-02T06:26:17.221Z,98152.15
2018-05-02T06:28:28.211Z,98150.85
2018-05-02T06:30:39.274Z,98143.85
2018-05-02T06:32:50.313Z,98148.20
2018-05-02T06:35:01.461Z,98146.00
2018-05-02T06:37:12.534Z,98142.64
2018-05-02T06:39:23.751Z,98138.70
2018-05-02T06:41:34.818Z,98134.93
2018-05-02T06:43:45.974Z,98128.61
2018-05-02T06:45:57.035Z,98123.36
2018-05-02T06:48:08.111Z,98127.92
2018-05-02T06:50:19.284Z,98130.73
2018-05-02T06:52:30.302Z,98127.16
2018-05-02T06:54:41.436Z,98125.86
2018-05-02T06:56:52.858Z,98120.44
2018-05-02T06:59:04.010Z,98118.03
2018-05-02T07:01:15.131Z,98122.98
2018-05-02T07:03:26.235Z,98125.34
2018-05-02T07:05:37.310Z,98128.98
2018-05-02T07:07:48.382Z,98122.57
2018-05-02T07:09:59.445Z,98122.31
2018-05-02T07:12:10.506Z,98119.09
2018-05-02T07:14:21.624Z,98106.58
2018-05-02T07:16:32.781Z,98104.51
2018-05-02T07:18:43.884Z,98099.55
2018-05-02T07:20:54.974Z,98100.50
2018-05-02T07:23:06.024Z,98098.08
2018-05-02T07:25:17.129Z,98092.69
2018-05-02T07:27:28.250Z,98095.41
2018-05-02T07:29:39.334Z,98094.41
2018-05-02T07:31:50.527Z,98079.47
2018-05-02T07:34:01.615Z,98079.16
2018-05-02T07:36:12.846Z,98083.50
2018-05-02T07:38:24.046Z,98073.92
2018-05-02T07:40:35.151Z,98074.45
2018-05-02T07:42:46.355Z,98073.84
2018-05-02T07:44:57.411Z,98072.72
2018-05-02T07:47:08.485Z,98070.31
2018-05-02T07:49:19.530Z,98071.95
2018-05-02T07:51:30.605Z,98071.59
2018-05-02T07:53:41.718Z,98059.78
2018-05-02T07:55:52.787Z,98067.03
2018-05-02T07:58:03.912Z,98063.79
2018-05-02T08:00:14.884Z,98074.11
2018-05-02T08:02:25.963Z,98071.26
2018-05-02T08:04:37.041Z,98078.20
2018-05-02T08:06:48.205Z,98073.86
2018-05-02T08:08:59.266Z,98079.91
2018-05-02T08:11:10.508Z,98069.56
2018-05-02T08:13:21.461Z,98069.70
2018-05-02T08:15:32.586Z,98058.61
2018-05-02T08:17:43.676Z,98058.61
2018-05-02T08:19:54.750Z,98059.58
2018-05-02T08:22:05.828Z,98057.51
2018-05-02T08:24:16.898Z,98049.26
2018-05-02T08:26:28.006Z,98043.98
2018-05-02T08:28:39.104Z,98041.17
2018-05-02T08:30:50.182Z,98044.98
2018-05-02T08:33:01.293Z,98046.59
2018-05-02T08:35:12.357Z,98044.50
2018-05-02T08:37:23.456Z,98043.23
2018-05-02T08:39:34.549Z,98041.83
2018-05-02T08:41:45.675Z,98040.97
2018-05-02T08:43:56.783Z,98043.69
2018-05-02T08:46:07.873Z,98040.33
2018-05-02T08:48:18.958Z,98039.45
2018-05-02T08:50:30.022Z,98040.75
2018-05-02T08:52:41.118Z,98043.20
2018-05-02T08:54:52.148Z,98041.11
2018-05-02T08:57:03.237Z,98040.61
2018-05-02T08:59:14.321Z,98035.26
2018-05-02T09:01:25.376Z,98035.89
2018-05-02T09:03:36.522Z,98029.55
2018-05-02T09:05:47.612Z,98027.07
2018-05-02T09:07:58.714Z,98029.39
2018-05-02T09:10:09.790Z,98024.44
2018-05-02T09:12:20.906Z,98036.30
2018-05-02T09:14:31.978Z,98023.30
2018-05-02T09:16:43.080Z,98029.84
2018-05-02T09:18:54.283Z,98029.41
2018-05-02T09:21:05.395Z,98023.45
2018-05-02T09:23:16.589Z,98025.40
2018-05-02T09:25:27.682Z,98026.65
2018-05-02T09:27:38.752Z,98019.37
2018-05-02T09:29:49.819Z,98020.65
2018-05-02T09:32:00.942Z,98013.88
2018-05-02T09:34:12.063Z,98010.53
2018-05-02T09:36:23.211Z,98004.48
2018-05-02T09:38:34.406Z,98003.55
2018-05-02T09:40:45.510Z,98002.23
2018-05-02T09:42:56.613Z,97995.90
2018-05-02T09:45:07.684Z,97996.72
2018-05-02T09:47:18.777Z,97986.02
2018-05-02T09:49:29.853Z,97982.27
2018-05-02T09:51:40.977Z,97984.70
2018-05-02T09:53:52.058Z,97984.00
2018-05-02T09:56:03.220Z,97976.72
2018-05-02T09:58:14.457Z,97976.86
2018-05-02T10:00:29.361Z,97982.05
2018-05-02T10:02:40.450Z,97971.63
2018-05-02T10:04:51.517Z,97973.83
2018-05-02T10:07:02.609Z,97972.70
2018-05-02T10:09:13.750Z,97965.75
2018-05-02T10:11:24.854Z,97955.73
2018-05-02T10:13:35.998Z,97957.57
2018-05-02T10:15:47.194Z,97951.20
2018-05-02T10:17:58.514Z,97949.42
2018-05-02T10:20:09.570Z,97955.28
2018-05-02T10:22:20.775Z,97948.41
2018-05-02T10:24:31.862Z,97949.44
2018-05-02T10:26:42.916Z,97947.70
2018-05-02T10:28:53.989Z,97953.77
2018-05-02T10:31:05.122Z,97953.30
2018-05-02T10:33:16.238Z,97945.94
2018-05-02T10:35:27.361Z,97943.95
2018-05-02T10:37:38.634Z,97931.84
2018-05-02T10:39:49.789Z,97935.87
2018-05-02T10:42:00.877Z,97933.54
2018-05-02T10:44:11.981Z,97937.29
2018-05-02T10:46:23.048Z,97939.84
2018-05-02T10:48:34.123Z,97938.77
2018-05-02T10:50:45.216Z,97936.79
2018-05-02T10:52:56.303Z,97934.91
2018-05-02T10:55:07.548Z,97929.68
2018-05-02T10:57:18.691Z,97932.38
2018-05-02T10:59:29.780Z,97927.94
2018-05-02T11:01:40.986Z,97927.73
2018-05-02T11:03:52.100Z,97923.33
2018-05-02T11:06:03.227Z,97918.50
2018-05-02T11:08:14.356Z,97914.53
2018-05-02T11:10:25.426Z,97907.89
2018-05-02T11:12:36.524Z,97913.34
2018-05-02T11:14:47.635Z,97911.47
2018-05-02T11:16:58.737Z,97910.78
2018-05-02T11:19:09.786Z,97911.59
2018-05-02T11:21:20.906Z,97909.09
2018-05-02T11:23:32.015Z,97910.88
2018-05-02T11:25:43.141Z,97910.33
2018-05-02T11:27:54.239Z,97901.46
2018-05-02T11:30:05.354Z,97904.58
2018-05-02T11:32:16.423Z,97903.07
2018-05-02T11:34:27.562Z,97901.06
2018-05-02T11:36:38.737Z,97906.80
2018-05-02T11:38:49.793Z,97901.88
2018-05-02T11:41:00.909Z,97897.44
2018-05-02T11:43:12.002Z,97891.42
2018-05-02T11:45:23.174Z,97885.37
2018-05-02T11:47:34.314Z,97885.02
2018-05-02T11:49:45.404Z,97877.67
2018-05-02T11:51:56.524Z,97883.50
2018-05-02T11:54:07.703Z,97880.61
2018-05-02T11:56:18.790Z,97882.17
2018-05-02T11:58:29.913Z,97884.77
2018-05-02T12:00:40.990Z,97882.80
2018-05-02T12:02:52.073Z,97883.34
2018-05-02T12:05:03.207Z,97877.02
2018-05-02T12:07:14.300Z,97872.70
2018-05-02T12:09:25.524Z,97874.83
2018-05-02T12:11:36.650Z,97874.36
2018-05-02T12:13:47.754Z,97874.07
2018-05-02T12:15:59.037Z,97875.28
2018-05-02T12:18:10.090Z,97867.39
2018-05-02T12:20:21.184Z,97866.44
2018-05-02T12:22:32.345Z,97868.40
2018-05-02T12:24:43.442Z,97870.86
2018-05-02T12:26:54.542Z,97871.52
2018-05-02T12:29:05.658Z,97875.36
2018-05-02T12:31:16.754Z,97865.70
2018-05-02T12:33:27.906Z,97868.00
2018-05-02T12:35:39.077Z,97870.30
2018-05-02T12:37:50.191Z,97869.47
2018-05-02T12:40:01.286Z,97858.73
2018-05-02T12:42:13.628Z,97856.61
2018-05-02T12:44:24.847Z,97846.55
2018-05-02T12:46:36.090Z,97842.39
2018-05-02T12:48:47.205Z,97834.08
2018-05-02T12:50:58.294Z,97830.88
2018-05-02T12:53:09.470Z,97827.72
2018-05-02T12:55:20.558Z,97827.61
2018-05-02T12:57:31.606Z,97825.83
2018-05-02T12:59:43.723Z,97819.39
2018-05-02T13:01:54.798Z,97826.35
2018-05-02T13:04:05.901Z,97818.12
2018-05-02T13:06:16.994Z,97816.04
2018-05-02T13:08:28.075Z,97811.05
2018-05-02T13:10:39.306Z,97807.70
2018-05-02T13:12:50.389Z,97805.02
2018-05-02T13:15:01.597Z,97809.55
2018-05-02T13:17:12.686Z,97812.56
2018-05-02T13:19:23.815Z,97813.55
2018-05-02T13:21:34.984Z,97812.00
2018-05-02T13:23:46.073Z,97808.59
2018-05-02T13:25:57.166Z,97797.85
2018-05-02T13:28:08.242Z,97791.69
2018-05-02T13:30:19.414Z,97800.27
2018-05-02T13:32:30.471Z,97805.77
2018-05-02T13:34:41.587Z,97803.06
2018-05-02T13:36:52.727Z,97793.19
2018-05-02T13:39:04.638Z,97789.44
2018-05-02T13:41:15.766Z,97787.66
2018-05-02T13:43:26.905Z,97780.07
2018-05-02T13:45:38.062Z,97781.55
2018-05-02T13:47:49.150Z,97775.22
2018-05-02T13:50:00.242Z,97770.70
2018-05-02T13:52:11.322Z,97767.63
2018-05-02T13:54:22.426Z,97765.36
2018-05-02T13:56:33.609Z,97766.26
2018-05-02T13:58:44.683Z,97765.49
2018-05-02T14:00:55.810Z,97762.86
2018-05-02T14:03:06.905Z,97759.55
2018-05-02T14:05:18.006Z,97753.41
2018-05-02T14:07:29.171Z,97760.56
2018-05-02T14:09:40.278Z,97755.28
2018-05-02T14:11:51.357Z,97751.33
2018-05-02T14:14:02.446Z,97751.53
2018-05-02T14:16:13.541Z,97752.64
2018-05-02T14:18:24.657Z,97754.07
2018-05-02T14:20:35.810Z,97753.81
2018-05-02T14:22:46.922Z,97759.41
2018-05-02T14:24:58.070Z,97756.83
2018-05-02T14:27:09.116Z,97755.22
2018-05-02T14:29:20.206Z,97743.64
2018-05-02T14:31:31.314Z,97747.17
2018-05-02T14:33:42.370Z,97751.14
2018-05-02T14:35:53.491Z,97749.39
2018-05-02T14:38:04.677Z,97751.53
2018-05-02T14:40:15.925Z,97749.63
2018-05-02T14:42:27.019Z,97748.65
2018-05-02T14:44:38.081Z,97755.97
2018-05-02T14:46:49.162Z,97760.02
2018-05-02T14:49:00.266Z,97751.85
2018-05-02T14:51:11.365Z,97752.87
2018-05-02T14:53:22.471Z,97754.35
2018-05-02T14:55:33.667Z,97754.00
2018-05-02T14:57:44.709Z,97749.33
2018-05-02T14:59:55.806Z,97749.05
2018-05-02T15:02:07.010Z,97749.81
2018-05-02T15:04:18.006Z,97746.05
2018-05-02T15:06:29.078Z,97746.27
2018-05-02T15:08:40.185Z,97745.86
2018-05-02T15:10:51.281Z,97748.91
2018-05-02T15:13:02.432Z,97752.13
2018-05-02T15:15:13.534Z,97756.23
2018-05-02T15:17:24.659Z,97762.03
2018-05-02T15:19:35.742Z,97763.27
2018-05-02T15:21:46.855Z,97763.70
2018-05-02T15:23:57.978Z,97762.88
2018-05-02T15:26:09.101Z,97763.72
2018-05-02T15:28:20.289Z,97768.27
2018-05-02T15:30:31.394Z,97767.83
2018-05-02T15:32:42.527Z,97767.13
2018-05-02T15:34:53.685Z,97772.75
2018-05-02T15:37:04.868Z,97769.19
2018-05-02T15:39:16.113Z,97775.83
2018-05-02T15:41:27.187Z,97777.98
2018-05-02T15:43:38.469Z,97774.54
2018-05-02T15:45:49.558Z,97777.25
2018-05-02T15:48:00.708Z,97777.96
2018-05-02T15:50:11.817Z,97787.41
2018-05-02T15:52:22.927Z,97782.29
2018-05-02T15:54:34.151Z,97778.27
2018-05-02T15:56:45.237Z,97778.59
2018-05-02T15:58:56.480Z,97769.80
2018-05-02T16:01:07.760Z,97777.73
2018-05-02T16:03:18.865Z,97779.38
2018-05-02T16:05:30.023Z,97774.53
2018-05-02T16:07:41.141Z,97775.76
2018-05-02T16:09:52.307Z,97776.72
2018-05-02T16:12:03.428Z,97770.83
2018-05-02T16:14:14.560Z,97776.11
2018-05-02T16:16:25.850Z,97780.77
2018-05-02T16:18:36.930Z,97785.58
2018-05-02T16:20:48.118Z,97785.74
2018-05-02T16:22:59.225Z,97786.55
2018-05-02T16:25:10.330Z,97784.58
2018-05-02T16:27:21.423Z,97787.30
2018-05-02T16:29:32.494Z,97787.27
2018-05-02T16:31:43.642Z,97783.13
2018-05-02T16:33:54.708Z,97780.50
2018-05-02T16:36:05.813Z,97781.07
2018-05-02T16:38:16.931Z,97785.59
2018-05-02T16:40:28.100Z,97782.34
2018-05-02T16:42:39.224Z,97778.73
2018-05-02T16:44:50.339Z,97779.14
2018-05-02T16:47:01.434Z,97781.73
2018-05-02T16:49:12.559Z,97781.37
2018-05-02T16:51:23.620Z,97785.19
2018-05-02T16:53:34.742Z,97784.41
2018-05-02T16:55:45.929Z,97781.95
2018-05-02T16:57:57.075Z,97785.77
2018-05-02T17:00:08.229Z,97783.10
2018-05-02T17:02:19.303Z,97780.89
2018-05-02T17:04:30.569Z,97780.97
2018-05-02T17:06:41.621Z,97782.53
2018-05-02T17:08:52.755Z,97782.53
2018-05-02T17:11:03.845Z,97790.04
2018-05-02T17:13:14.939Z,97788.41
2018-05-02T17:15:26.193Z,97792.70
2018-05-02T17:17:37.305Z,97798.90
2018-05-02T17:19:48.442Z,97802.63
2018-05-02T17:21:59.625Z,97804.02
2018-05-02T17:24:10.747Z,97809.89
2018-05-02T17:26:21.882Z,97808.13
2018-05-02T17:28:32.997Z,97808.33
2018-05-02T17:30:44.125Z,97813.78
2018-05-02T17:32:55.211Z,97813.17
2018-05-02T17:35:06.378Z,97814.79
2018-05-02T17:37:17.491Z,97815.03
2018-05-02T17:39:28.789Z,97815.52
2018-05-02T17:41:40.014Z,97813.53
2018-05-02T17:43:51.146Z,97817.03
2018-05-02T17:46:02.405Z,97806.76
2018-05-02T17:48:13.573Z,97808.30
2018-05-02T17:50:24.740Z,97804.38
2018-05-02T17:52:35.944Z,97808.89
2018-05-02T17:54:47.234Z,97803.92
2018-05-02T17:56:58.343Z,97809.45
2018-05-02T17:59:09.434Z,97813.40
2018-05-02T18:01:20.558Z,97816.91
2018-05-02T18:03:31.645Z,97822.43
2018-05-02T18:05:42.786Z,97824.64
2018-05-02T18:07:54.034Z,97826.45
2018-05-02T18:10:05.174Z,97828.53
2018-05-02T18:12:16.430Z,97831.35
2018-05-02T18:14:27.526Z,97832.45
2018-05-02T18:16:38.717Z,97833.62
2018-05-02T18:18:49.872Z,97840.34
2018-05-02T18:21:00.947Z,97844.95
2018-05-02T18:23:12.073Z,97841.27
2018-05-02T18:25:23.157Z,97839.32
2018-05-02T18:27:34.304Z,97844.98
2018-05-02T18:29:45.474Z,97847.39
2018-05-02T18:31:56.630Z,97842.22
2018-05-02T18:34:07.850Z,97844.29
2018-05-02T18:36:19.058Z,97849.72
2018-05-02T18:38:30.163Z,97845.53
2018-05-02T18:40:41.279Z,97842.91
2018-05-02T18:42:52.339Z,97844.16
2018-05-02T18:45:03.452Z,97841.66
2018-05-02T18:47:14.611Z,97844.08
2018-05-02T18:49:25.692Z,97840.84
2018-05-02T18:51:36.827Z,97844.13
2018-05-02T18:53:48.011Z,97843.50
2018-05-02T18:55:59.156Z,97848.89
2018-05-02T18:58:10.267Z,97851.70
2018-05-02T19:00:21.373Z,97848.74
2018-05-02T19:02:32.629Z,97851.06
2018-05-02T19:04:43.753Z,97856.45
2018-05-02T19:06:55.002Z,97855.82
2018-05-02T19:09:06.113Z,97856.31
2018-05-02T19:11:17.340Z,97859.87
2018-05-02T19:13:28.442Z,97863.05
2018-05-02T19:15:39.546Z,97867.09
2018-05-02T19:17:56.718Z,97866.00
2018-05-02T19:20:13.863Z,97869.66
2018-05-02T19:22:24.986Z,97869.59
2018-05-02T19:24:42.231Z,97868.77
2018-05-02T19:26:53.369Z,97866.19
2018-05-02T19:29:04.499Z,97863.42
2018-05-02T19:31:21.514Z,97863.16
2018-05-02T19:33:38.625Z,97859.83
2018-05-02T19:35:49.759Z,97869.77
2018-05-02T19:38:00.879Z,97874.56
2018-05-02T19:40:18.091Z,97879.23
2018-05-02T19:42:35.169Z,97884.32
2018-05-02T19:44:46.263Z,97884.09
2018-05-02T19:46:57.365Z,97883.00
2018-05-02T19:49:08.504Z,97887.45
2018-05-02T19:51:25.795Z,97888.64
2018-05-02T19:53:36.897Z,97887.63
2018-05-02T19:55:48.018Z,97893.16
2018-05-02T19:57:59.146Z,97893.34
2018-05-02T20:00:16.405Z,97898.64
2018-05-02T20:02:33.610Z,97901.55
2018-05-02T20:04:44.802Z,97915.64
2018-05-02T20:06:55.940Z,97915.09
2018-05-02T20:09:13.217Z,97914.81
2018-05-02T20:11:30.357Z,97917.77
2018-05-02T20:13:47.428Z,97913.02
2018-05-02T20:15:58.491Z,97909.41
2018-05-02T20:18:09.651Z,97912.95
2018-05-02T20:20:20.770Z,97909.23
2018-05-02T20:22:31.835Z,97910.72
2018-05-02T20:24:43.093Z,97912.00
2018-05-02T20:26:54.182Z,97910.25
2018-05-02T20:29:05.362Z,97906.88
2018-05-02T20:31:16.450Z,97903.85
2018-05-02T20:33:27.569Z,97901.41
2018-05-02T20:35:38.658Z,97891.70
2018-05-02T20:37:49.770Z,97896.03
2018-05-02T20:40:00.938Z,97896.52
2018-05-02T20:42:12.040Z,97892.17
2018-05-02T20:44:23.157Z,97896.89
2018-05-02T20:46:34.342Z,97895.41
2018-05-02T20:48:45.432Z,97891.65
2018-05-02T20:50:56.530Z,97893.62
2018-05-02T20:53:07.640Z,97891.05
2018-05-02T20:55:18.788Z,97891.89
2018-05-02T20:57:29.862Z,97891.21
2018-05-02T20:59:41.065Z,97889.33
2018-05-02T21:01:52.199Z,97896.13
2018-05-02T21:04:03.353Z,97898.09
2018-05-02T21:06:14.461Z,97902.46
2018-05-02T21:08:25.570Z,97902.53
2018-05-02T21:10:36.678Z,97907.38
2018-05-02T21:12:47.754Z,97908.58
2018-05-02T21:14:58.909Z,97908.58
2018-05-02T21:17:10.033Z,97909.88
2018-05-02T21:19:21.129Z,97906.92
2018-05-02T21:21:32.250Z,97908.57
2018-05-02T21:23:43.432Z,97901.73
2018-05-02T21:25:54.508Z,97904.06
2018-05-02T21:28:05.625Z,97909.18
2018-05-02T21:30:16.717Z,97910.13
2018-05-02T21:32:27.859Z,97905.80
2018-05-02T21:34:38.940Z,97909.06
2018-05-02T21:36:50.042Z,97911.58
2018-05-02T21:39:01.114Z,97910.44
2018-05-02T21:41:12.241Z,97904.21
2018-05-02T21:43:23.463Z,97907.13
2018-05-02T21:45:34.542Z,97914.88
2018-05-02T21:47:45.713Z,97911.16
2018-05-02T21:49:56.744Z,97922.84
2018-05-02T21:52:07.890Z,97919.47
2018-05-02T21:54:19.025Z,97917.92
2018-05-02T21:56:30.103Z,97913.70
2018-05-02T21:58:41.173Z,97915.79
2018-05-02T22:00:52.251Z,97910.84
2018-05-02T22:03:03.397Z,97912.98
2018-05-02T22:05:14.476Z,97916.06
2018-05-02T22:07:25.656Z,97918.39
2018-05-02T22:09:36.723Z,97924.56
2018-05-02T22:11:47.905Z,97927.39
2018-05-02T22:13:59.158Z,97923.03
2018-05-02T22:16:10.221Z,97919.39
2018-05-02T22:18:21.362Z,97909.02
2018-05-02T22:20:32.432Z,97914.34
2018-05-02T22:22:43.548Z,97906.09
2018-05-02T22:24:54.640Z,97908.49
2018-05-02T22:27:05.730Z,97914.27
2018-05-02T22:29:16.801Z,97922.88
2018-05-02T22:31:27.878Z,97925.53
2018-05-02T22:33:39.094Z,97930.40
2018-05-02T22:35:50.181Z,97929.13
2018-05-02T22:38:01.294Z,97928.78
2018-05-02T22:40:12.342Z,97927.04
2018-05-02T22:42:23.439Z,97927.17
2018-05-02T22:44:34.488Z,97928.95
2018-05-02T22:46:45.671Z,97927.33
2018-05-02T22:48:56.808Z,97934.96
2018-05-02T22:51:08.066Z,97937.86
2018-05-02T22:53:19.219Z,97934.52
2018-05-02T22:55:30.306Z,97943.39
2018-05-02T22:57:41.533Z,97948.45
2018-05-02T22:59:52.623Z,97947.14
2018-05-02T23:02:03.725Z,97951.28
2018-05-02T23:04:14.830Z,97951.63
2018-05-02T23:06:25.946Z,97953.59
2018-05-02T23:08:36.998Z,97958.23
2018-05-02T23:10:48.182Z,97955.53
2018-05-02T23:12:59.289Z,97954.73
2018-05-02T23:15:10.378Z,97953.52
2018-05-02T23:17:21.603Z,97961.41
2018-05-02T23:19:32.661Z,97963.68
2018-05-02T23:21:43.707Z,97968.20
2018-05-02T23:23:54.803Z,97970.80
2018-05-02T23:26:05.882Z,97970.89
2018-05-02T23:28:17.021Z,97974.18
2018-05-02T23:30:28.254Z,97973.98
2018-05-02T23:32:39.366Z,97962.83
2018-05-02T23:34:50.544Z,97968.65
2018-05-02T23:37:01.686Z,97969.11
2018-05-02T23:39:12.847Z,97982.28
2018-05-02T23:41:24.202Z,97978.52
2018-05-02T23:43:35.217Z,97981.25
2018-05-02T23:45:46.326Z,97986.11
2018-05-02T23:47:57.411Z,97989.08
2018-05-02T23:50:08.509Z,97996.34
2018-05-02T23:52:19.642Z,97993.86
2018-05-02T23:54:30.703Z,97996.26
2018-05-02T23:56:41.821Z,97992.83
2018-05-02T23:58:52.901Z,97993.44
